sensor_id;sensor_type;location;lat;lon;timestamp;temperature;humidity
19152;DHT22;9708;53.114;9.388;2023-08-07T00:00:58;16.00;99.90
19152;DHT22;9708;53.114;9.388;2023-08-07T00:03:25;15.90;99.90
19152;DHT22;9708;53.114;9.388;2023-08-07T00:05:52;15.90;99.90
19152;DHT22;9708;53.114;9.388;2023-08-07T00:08:20;15.90;99.90
19152;DHT22;9708;53.114;9.388;2023-08-07T00:10:48;16.00;99.90
19152;DHT22;9708;53.114;9.388;2023-08-07T00:13:15;15.90;99.90
19152;DHT22;9708;53.114;9.388;2023-08-07T00:15:42;15.90;99.90
19152;DHT22;9708;53.114;9.388;2023-08-07T00:18:09;16.00;99.90
19152;DHT22;9708;53.114;9.388;2023-08-07T00:20:35;16.00;99.90
19152;DHT22;9708;53.114;9.388;2023-08-07T00:23:02;16.00;99.90
19152;DHT22;9708;53.114;9.388;2023-08-07T00:25:29;15.90;99.90
19152;DHT22;9708;53.114;9.388;2023-08-07T00:27:57;15.90;99.90
19152;DHT22;9708;53.114;9.388;2023-08-07T00:30:24;15.90;99.90
19152;DHT22;9708;53.114;9.388;2023-08-07T00:32:50;15.90;99.90
19152;DHT22;9708;53.114;9.388;2023-08-07T00:35:17;15.80;99.90
19152;DHT22;9708;53.114;9.388;2023-08-07T00:37:44;15.90;99.90
19152;DHT22;9708;53.114;9.388;2023-08-07T00:40:11;15.90;99.90
19152;DHT22;9708;53.114;9.388;2023-08-07T00:42:38;15.90;99.90
19152;DHT22;9708;53.114;9.388;2023-08-07T00:45:07;15.90;99.90
19152;DHT22;9708;53.114;9.388;2023-08-07T00:47:34;15.90;99.90
19152;DHT22;9708;53.114;9.388;2023-08-07T00:50:04;15.90;99.90
19152;DHT22;9708;53.114;9.388;2023-08-07T00:52:32;15.90;99.90
19152;DHT22;9708;53.114;9.388;2023-08-07T00:54:59;15.90;99.90
19152;DHT22;9708;53.114;9.388;2023-08-07T00:57:26;15.90;99.90
19152;DHT22;9708;53.114;9.388;2023-08-07T00:59:53;15.80;99.90
19152;DHT22;9708;53.114;9.388;2023-08-07T01:02:22;15.80;99.90
19152;DHT22;9708;53.114;9.388;2023-08-07T01:04:49;15.80;99.90
19152;DHT22;9708;53.114;9.388;2023-08-07T01:07:16;15.80;99.90
19152;DHT22;9708;53.114;9.388;2023-08-07T01:09:59;15.80;99.90
19152;DHT22;9708;53.114;9.388;2023-08-07T01:12:30;15.80;99.90
19152;DHT22;9708;53.114;9.388;2023-08-07T01:15:03;15.80;99.90
19152;DHT22;9708;53.114;9.388;2023-08-07T01:17:33;15.70;99.90
19152;DHT22;9708;53.114;9.388;2023-08-07T01:20:01;15.70;99.90
19152;DHT22;9708;53.114;9.388;2023-08-07T01:22:29;15.70;99.90
19152;DHT22;9708;53.114;9.388;2023-08-07T01:24:56;15.70;99.90
19152;DHT22;9708;53.114;9.388;2023-08-07T01:27:33;15.70;99.90
19152;DHT22;9708;53.114;9.388;2023-08-07T01:30:09;15.70;99.90
19152;DHT22;9708;53.114;9.388;2023-08-07T01:32:43;15.60;99.90
19152;DHT22;9708;53.114;9.388;2023-08-07T01:35:16;15.60;99.90
19152;DHT22;9708;53.114;9.388;2023-08-07T01:37:45;15.60;99.90
19152;DHT22;9708;53.114;9.388;2023-08-07T01:40:13;15.60;99.90
19152;DHT22;9708;53.114;9.388;2023-08-07T01:42:41;15.60;99.90
19152;DHT22;9708;53.114;9.388;2023-08-07T01:45:09;15.60;99.90
19152;DHT22;9708;53.114;9.388;2023-08-07T01:47:36;15.50;99.90
19152;DHT22;9708;53.114;9.388;2023-08-07T01:50:03;15.50;99.90
19152;DHT22;9708;53.114;9.388;2023-08-07T01:52:30;15.50;99.90
19152;DHT22;9708;53.114;9.388;2023-08-07T01:54:58;15.50;99.90
19152;DHT22;9708;53.114;9.388;2023-08-07T01:57:24;15.50;99.90
19152;DHT22;9708;53.114;9.388;2023-08-07T01:59:52;15.40;99.90
19152;DHT22;9708;53.114;9.388;2023-08-07T02:02:18;15.40;99.90
19152;DHT22;9708;53.114;9.388;2023-08-07T02:04:45;15.40;99.90
19152;DHT22;9708;53.114;9.388;2023-08-07T02:07:12;15.40;99.90
19152;DHT22;9708;53.114;9.388;2023-08-07T02:09:39;15.40;99.90
19152;DHT22;9708;53.114;9.388;2023-08-07T02:12:08;15.40;99.90
19152;DHT22;9708;53.114;9.388;2023-08-07T02:14:34;15.40;99.90
19152;DHT22;9708;53.114;9.388;2023-08-07T02:17:01;15.40;99.90
19152;DHT22;9708;53.114;9.388;2023-08-07T02:19:28;15.40;99.90
19152;DHT22;9708;53.114;9.388;2023-08-07T02:21:56;15.40;99.90
19152;DHT22;9708;53.114;9.388;2023-08-07T02:24:22;15.40;99.90
19152;DHT22;9708;53.114;9.388;2023-08-07T02:26:49;15.40;99.90
19152;DHT22;9708;53.114;9.388;2023-08-07T02:29:17;15.40;99.90
19152;DHT22;9708;53.114;9.388;2023-08-07T02:31:44;15.40;99.90
19152;DHT22;9708;53.114;9.388;2023-08-07T02:34:11;15.40;99.90
19152;DHT22;9708;53.114;9.388;2023-08-07T02:36:38;15.40;99.90
19152;DHT22;9708;53.114;9.388;2023-08-07T02:39:05;15.40;99.90
19152;DHT22;9708;53.114;9.388;2023-08-07T02:41:31;15.40;99.90
19152;DHT22;9708;53.114;9.388;2023-08-07T02:43:58;15.40;99.90
19152;DHT22;9708;53.114;9.388;2023-08-07T02:46:26;15.40;99.90
19152;DHT22;9708;53.114;9.388;2023-08-07T02:48:53;15.40;99.90
19152;DHT22;9708;53.114;9.388;2023-08-07T02:51:20;15.40;99.90
19152;DHT22;9708;53.114;9.388;2023-08-07T02:53:47;15.40;99.90
19152;DHT22;9708;53.114;9.388;2023-08-07T02:56:13;15.40;99.90
19152;DHT22;9708;53.114;9.388;2023-08-07T02:58:40;15.40;99.90
19152;DHT22;9708;53.114;9.388;2023-08-07T03:01:07;15.40;99.90
19152;DHT22;9708;53.114;9.388;2023-08-07T03:03:35;15.30;99.90
19152;DHT22;9708;53.114;9.388;2023-08-07T03:06:03;15.30;99.90
19152;DHT22;9708;53.114;9.388;2023-08-07T03:08:30;15.30;99.90
19152;DHT22;9708;53.114;9.388;2023-08-07T03:10:58;15.30;99.90
19152;DHT22;9708;53.114;9.388;2023-08-07T03:13:25;15.20;99.90
19152;DHT22;9708;53.114;9.388;2023-08-07T03:15:59;15.30;99.90
19152;DHT22;9708;53.114;9.388;2023-08-07T03:18:26;15.30;99.90
19152;DHT22;9708;53.114;9.388;2023-08-07T03:20:54;15.30;99.90
19152;DHT22;9708;53.114;9.388;2023-08-07T03:23:21;15.20;99.90
19152;DHT22;9708;53.114;9.388;2023-08-07T03:25:48;15.20;99.90
19152;DHT22;9708;53.114;9.388;2023-08-07T03:28:15;15.20;99.90
19152;DHT22;9708;53.114;9.388;2023-08-07T03:30:43;15.20;99.90
19152;DHT22;9708;53.114;9.388;2023-08-07T03:33:10;15.20;99.90
19152;DHT22;9708;53.114;9.388;2023-08-07T03:35:37;15.20;99.90
19152;DHT22;9708;53.114;9.388;2023-08-07T03:38:05;15.20;99.90
19152;DHT22;9708;53.114;9.388;2023-08-07T03:40:33;15.30;99.90
19152;DHT22;9708;53.114;9.388;2023-08-07T03:43:00;15.20;99.90
19152;DHT22;9708;53.114;9.388;2023-08-07T03:45:26;15.20;99.90
19152;DHT22;9708;53.114;9.388;2023-08-07T03:47:53;15.20;99.90
19152;DHT22;9708;53.114;9.388;2023-08-07T03:50:20;15.20;99.90
19152;DHT22;9708;53.114;9.388;2023-08-07T03:52:47;15.20;99.90
19152;DHT22;9708;53.114;9.388;2023-08-07T03:55:15;15.20;99.90
19152;DHT22;9708;53.114;9.388;2023-08-07T03:57:42;15.00;99.90
19152;DHT22;9708;53.114;9.388;2023-08-07T04:00:09;14.90;99.90
19152;DHT22;9708;53.114;9.388;2023-08-07T04:02:37;14.80;99.90
19152;DHT22;9708;53.114;9.388;2023-08-07T04:05:04;14.80;99.90
19152;DHT22;9708;53.114;9.388;2023-08-07T04:07:31;14.70;99.90
19152;DHT22;9708;53.114;9.388;2023-08-07T04:09:58;14.70;99.90
19152;DHT22;9708;53.114;9.388;2023-08-07T04:12:26;14.70;99.90
19152;DHT22;9708;53.114;9.388;2023-08-07T04:14:53;14.70;99.90
19152;DHT22;9708;53.114;9.388;2023-08-07T04:17:20;14.80;99.90
19152;DHT22;9708;53.114;9.388;2023-08-07T04:19:47;14.70;99.90
19152;DHT22;9708;53.114;9.388;2023-08-07T04:22:14;14.70;99.90
19152;DHT22;9708;53.114;9.388;2023-08-07T04:24:40;14.70;99.90
19152;DHT22;9708;53.114;9.388;2023-08-07T04:27:07;14.70;99.90
19152;DHT22;9708;53.114;9.388;2023-08-07T04:29:36;14.80;99.90
19152;DHT22;9708;53.114;9.388;2023-08-07T04:32:03;14.80;99.90
19152;DHT22;9708;53.114;9.388;2023-08-07T04:34:30;14.70;99.90
19152;DHT22;9708;53.114;9.388;2023-08-07T04:36:57;14.80;99.90
19152;DHT22;9708;53.114;9.388;2023-08-07T04:39:24;14.80;99.90
19152;DHT22;9708;53.114;9.388;2023-08-07T04:41:51;14.80;99.90
19152;DHT22;9708;53.114;9.388;2023-08-07T04:44:17;14.90;99.90
19152;DHT22;9708;53.114;9.388;2023-08-07T04:46:47;14.90;99.90
19152;DHT22;9708;53.114;9.388;2023-08-07T04:49:13;15.00;99.90
19152;DHT22;9708;53.114;9.388;2023-08-07T04:51:40;15.00;99.90
19152;DHT22;9708;53.114;9.388;2023-08-07T04:54:07;15.10;99.90
19152;DHT22;9708;53.114;9.388;2023-08-07T04:56:34;15.10;99.90
19152;DHT22;9708;53.114;9.388;2023-08-07T04:59:01;15.20;99.90
19152;DHT22;9708;53.114;9.388;2023-08-07T05:01:28;15.20;99.90
19152;DHT22;9708;53.114;9.388;2023-08-07T05:03:56;15.20;99.90
19152;DHT22;9708;53.114;9.388;2023-08-07T05:06:24;15.30;99.90
19152;DHT22;9708;53.114;9.388;2023-08-07T05:08:51;15.20;99.90
19152;DHT22;9708;53.114;9.388;2023-08-07T05:11:18;15.20;99.90
19152;DHT22;9708;53.114;9.388;2023-08-07T05:13:45;15.20;99.90
19152;DHT22;9708;53.114;9.388;2023-08-07T05:16:12;15.20;99.90
19152;DHT22;9708;53.114;9.388;2023-08-07T05:18:39;15.20;99.90
19152;DHT22;9708;53.114;9.388;2023-08-07T05:21:07;15.20;99.90
19152;DHT22;9708;53.114;9.388;2023-08-07T05:23:35;15.20;99.90
19152;DHT22;9708;53.114;9.388;2023-08-07T05:26:01;15.30;99.90
19152;DHT22;9708;53.114;9.388;2023-08-07T05:28:28;15.30;99.90
19152;DHT22;9708;53.114;9.388;2023-08-07T05:30:55;15.30;99.90
19152;DHT22;9708;53.114;9.388;2023-08-07T05:33:22;15.30;99.90
19152;DHT22;9708;53.114;9.388;2023-08-07T05:35:49;15.40;99.90
19152;DHT22;9708;53.114;9.388;2023-08-07T05:38:19;15.30;99.90
19152;DHT22;9708;53.114;9.388;2023-08-07T05:40:46;15.30;99.90
19152;DHT22;9708;53.114;9.388;2023-08-07T05:43:13;15.40;99.90
19152;DHT22;9708;53.114;9.388;2023-08-07T05:45:42;15.50;99.90
19152;DHT22;9708;53.114;9.388;2023-08-07T05:48:10;15.80;99.90
19152;DHT22;9708;53.114;9.388;2023-08-07T05:50:37;15.90;99.90
19152;DHT22;9708;53.114;9.388;2023-08-07T05:53:04;16.00;99.90
19152;DHT22;9708;53.114;9.388;2023-08-07T05:55:32;16.30;99.90
19152;DHT22;9708;53.114;9.388;2023-08-07T05:57:59;16.20;99.90
19152;DHT22;9708;53.114;9.388;2023-08-07T06:00:26;15.90;99.90
19152;DHT22;9708;53.114;9.388;2023-08-07T06:02:53;15.70;99.90
19152;DHT22;9708;53.114;9.388;2023-08-07T06:05:20;15.70;99.90
19152;DHT22;9708;53.114;9.388;2023-08-07T06:07:47;15.60;99.90
19152;DHT22;9708;53.114;9.388;2023-08-07T06:10:14;15.50;99.90
19152;DHT22;9708;53.114;9.388;2023-08-07T06:12:42;15.60;99.90
19152;DHT22;9708;53.114;9.388;2023-08-07T06:15:09;15.50;99.90
19152;DHT22;9708;53.114;9.388;2023-08-07T06:17:36;15.50;99.90
19152;DHT22;9708;53.114;9.388;2023-08-07T06:20:06;15.50;99.90
19152;DHT22;9708;53.114;9.388;2023-08-07T06:22:34;15.70;99.90
19152;DHT22;9708;53.114;9.388;2023-08-07T06:25:01;16.10;99.90
19152;DHT22;9708;53.114;9.388;2023-08-07T06:27:28;17.10;99.90
19152;DHT22;9708;53.114;9.388;2023-08-07T06:29:57;17.80;99.90
19152;DHT22;9708;53.114;9.388;2023-08-07T06:32:25;18.30;99.90
19152;DHT22;9708;53.114;9.388;2023-08-07T06:34:52;17.80;99.90
19152;DHT22;9708;53.114;9.388;2023-08-07T06:37:19;17.30;99.90
19152;DHT22;9708;53.114;9.388;2023-08-07T06:39:46;16.90;99.90
19152;DHT22;9708;53.114;9.388;2023-08-07T06:42:13;16.70;99.90
19152;DHT22;9708;53.114;9.388;2023-08-07T06:44:39;16.80;99.90
19152;DHT22;9708;53.114;9.388;2023-08-07T06:47:08;16.80;99.90
19152;DHT22;9708;53.114;9.388;2023-08-07T06:49:35;16.80;99.90
19152;DHT22;9708;53.114;9.388;2023-08-07T06:52:02;16.90;99.90
19152;DHT22;9708;53.114;9.388;2023-08-07T06:54:29;16.90;99.90
19152;DHT22;9708;53.114;9.388;2023-08-07T06:56:55;16.80;99.90
19152;DHT22;9708;53.114;9.388;2023-08-07T06:59:22;16.50;99.90
19152;DHT22;9708;53.114;9.388;2023-08-07T07:01:51;17.00;99.90
19152;DHT22;9708;53.114;9.388;2023-08-07T07:04:19;17.60;99.90
19152;DHT22;9708;53.114;9.388;2023-08-07T07:06:45;17.70;99.90
19152;DHT22;9708;53.114;9.388;2023-08-07T07:09:12;17.40;99.90
19152;DHT22;9708;53.114;9.388;2023-08-07T07:11:42;17.40;99.90
19152;DHT22;9708;53.114;9.388;2023-08-07T07:14:10;17.40;99.90
19152;DHT22;9708;53.114;9.388;2023-08-07T07:16:37;17.10;99.90
19152;DHT22;9708;53.114;9.388;2023-08-07T07:19:04;16.70;99.90
19152;DHT22;9708;53.114;9.388;2023-08-07T07:21:33;16.30;99.90
19152;DHT22;9708;53.114;9.388;2023-08-07T07:24:00;16.10;99.90
19152;DHT22;9708;53.114;9.388;2023-08-07T07:26:26;16.00;99.90
19152;DHT22;9708;53.114;9.388;2023-08-07T07:28:53;16.20;99.90
19152;DHT22;9708;53.114;9.388;2023-08-07T07:31:20;16.40;99.90
19152;DHT22;9708;53.114;9.388;2023-08-07T07:33:47;16.40;99.90
19152;DHT22;9708;53.114;9.388;2023-08-07T07:36:15;16.50;99.90
19152;DHT22;9708;53.114;9.388;2023-08-07T07:38:45;17.00;99.90
19152;DHT22;9708;53.114;9.388;2023-08-07T07:41:13;17.50;99.90
19152;DHT22;9708;53.114;9.388;2023-08-07T07:43:40;17.90;99.90
19152;DHT22;9708;53.114;9.388;2023-08-07T07:46:06;18.10;99.90
19152;DHT22;9708;53.114;9.388;2023-08-07T07:48:33;17.90;99.90
19152;DHT22;9708;53.114;9.388;2023-08-07T07:51:00;17.90;99.90
19152;DHT22;9708;53.114;9.388;2023-08-07T07:53:27;18.40;99.90
19152;DHT22;9708;53.114;9.388;2023-08-07T07:55:54;18.90;99.90
19152;DHT22;9708;53.114;9.388;2023-08-07T07:58:21;18.40;99.90
19152;DHT22;9708;53.114;9.388;2023-08-07T08:00:48;18.00;99.90
19152;DHT22;9708;53.114;9.388;2023-08-07T08:03:17;17.60;99.90
19152;DHT22;9708;53.114;9.388;2023-08-07T08:05:44;17.50;99.90
19152;DHT22;9708;53.114;9.388;2023-08-07T08:08:11;17.60;99.90
19152;DHT22;9708;53.114;9.388;2023-08-07T08:10:38;17.40;99.90
19152;DHT22;9708;53.114;9.388;2023-08-07T08:13:08;17.70;99.90
19152;DHT22;9708;53.114;9.388;2023-08-07T08:15:35;17.80;99.90
19152;DHT22;9708;53.114;9.388;2023-08-07T08:18:02;17.70;99.90
19152;DHT22;9708;53.114;9.388;2023-08-07T08:20:30;17.70;99.90
19152;DHT22;9708;53.114;9.388;2023-08-07T08:22:58;17.40;99.90
19152;DHT22;9708;53.114;9.388;2023-08-07T08:25:25;17.20;99.90
19152;DHT22;9708;53.114;9.388;2023-08-07T08:27:52;16.90;99.90
19152;DHT22;9708;53.114;9.388;2023-08-07T08:30:20;16.70;99.90
19152;DHT22;9708;53.114;9.388;2023-08-07T08:32:48;16.50;99.90
19152;DHT22;9708;53.114;9.388;2023-08-07T08:35:15;16.50;99.90
19152;DHT22;9708;53.114;9.388;2023-08-07T08:37:42;17.00;99.90
19152;DHT22;9708;53.114;9.388;2023-08-07T08:40:09;17.60;99.90
19152;DHT22;9708;53.114;9.388;2023-08-07T08:42:43;17.80;99.90
19152;DHT22;9708;53.114;9.388;2023-08-07T08:45:13;17.80;99.90
19152;DHT22;9708;53.114;9.388;2023-08-07T08:47:42;18.00;99.90
19152;DHT22;9708;53.114;9.388;2023-08-07T08:50:11;18.60;99.90
19152;DHT22;9708;53.114;9.388;2023-08-07T08:52:41;18.90;99.90
19152;DHT22;9708;53.114;9.388;2023-08-07T08:55:09;18.90;99.90
19152;DHT22;9708;53.114;9.388;2023-08-07T08:57:37;19.30;99.90
19152;DHT22;9708;53.114;9.388;2023-08-07T09:00:06;19.10;99.90
19152;DHT22;9708;53.114;9.388;2023-08-07T09:02:45;18.60;99.90
19152;DHT22;9708;53.114;9.388;2023-08-07T09:05:12;18.10;99.90
19152;DHT22;9708;53.114;9.388;2023-08-07T09:07:39;17.70;99.90
19152;DHT22;9708;53.114;9.388;2023-08-07T09:10:06;17.60;99.90
19152;DHT22;9708;53.114;9.388;2023-08-07T09:12:36;18.00;99.90
19152;DHT22;9708;53.114;9.388;2023-08-07T09:15:07;18.10;99.90
19152;DHT22;9708;53.114;9.388;2023-08-07T09:17:38;17.80;99.90
19152;DHT22;9708;53.114;9.388;2023-08-07T09:20:09;17.90;99.90
19152;DHT22;9708;53.114;9.388;2023-08-07T09:22:38;18.10;99.90
19152;DHT22;9708;53.114;9.388;2023-08-07T09:25:07;18.50;99.90
19152;DHT22;9708;53.114;9.388;2023-08-07T09:27:35;18.40;99.90
19152;DHT22;9708;53.114;9.388;2023-08-07T09:30:05;18.20;99.90
19152;DHT22;9708;53.114;9.388;2023-08-07T09:32:33;18.30;99.90
19152;DHT22;9708;53.114;9.388;2023-08-07T09:35:02;18.90;99.90
19152;DHT22;9708;53.114;9.388;2023-08-07T09:37:31;19.50;99.90
19152;DHT22;9708;53.114;9.388;2023-08-07T09:40:00;19.40;99.90
19152;DHT22;9708;53.114;9.388;2023-08-07T09:42:30;19.50;99.90
19152;DHT22;9708;53.114;9.388;2023-08-07T09:44:59;19.30;99.90
19152;DHT22;9708;53.114;9.388;2023-08-07T09:47:25;19.20;99.90
19152;DHT22;9708;53.114;9.388;2023-08-07T09:49:55;18.90;99.90
19152;DHT22;9708;53.114;9.388;2023-08-07T09:52:22;18.80;99.90
19152;DHT22;9708;53.114;9.388;2023-08-07T09:54:55;18.50;99.90
19152;DHT22;9708;53.114;9.388;2023-08-07T09:57:22;18.80;99.90
19152;DHT22;9708;53.114;9.388;2023-08-07T09:59:49;19.00;99.90
19152;DHT22;9708;53.114;9.388;2023-08-07T10:02:17;19.30;99.90
19152;DHT22;9708;53.114;9.388;2023-08-07T10:04:43;19.30;99.90
19152;DHT22;9708;53.114;9.388;2023-08-07T10:07:11;20.00;99.90
19152;DHT22;9708;53.114;9.388;2023-08-07T10:09:41;20.10;99.90
19152;DHT22;9708;53.114;9.388;2023-08-07T10:12:10;20.80;99.90
19152;DHT22;9708;53.114;9.388;2023-08-07T10:14:38;21.60;99.90
19152;DHT22;9708;53.114;9.388;2023-08-07T10:17:07;21.00;99.90
19152;DHT22;9708;53.114;9.388;2023-08-07T10:19:34;21.60;99.90
19152;DHT22;9708;53.114;9.388;2023-08-07T10:22:02;21.80;99.90
19152;DHT22;9708;53.114;9.388;2023-08-07T10:24:30;21.70;99.90
19152;DHT22;9708;53.114;9.388;2023-08-07T10:26:58;21.80;99.90
19152;DHT22;9708;53.114;9.388;2023-08-07T10:29:28;21.80;99.90
19152;DHT22;9708;53.114;9.388;2023-08-07T10:31:56;22.10;99.90
19152;DHT22;9708;53.114;9.388;2023-08-07T10:34:24;21.40;99.90
19152;DHT22;9708;53.114;9.388;2023-08-07T10:36:51;21.20;99.90
19152;DHT22;9708;53.114;9.388;2023-08-07T10:39:18;21.30;99.90
19152;DHT22;9708;53.114;9.388;2023-08-07T10:41:46;21.50;99.90
19152;DHT22;9708;53.114;9.388;2023-08-07T10:44:19;21.10;99.90
19152;DHT22;9708;53.114;9.388;2023-08-07T10:46:49;20.90;99.90
19152;DHT22;9708;53.114;9.388;2023-08-07T10:49:31;21.80;99.90
19152;DHT22;9708;53.114;9.388;2023-08-07T10:51:59;21.90;99.90
19152;DHT22;9708;53.114;9.388;2023-08-07T10:54:28;22.50;99.90
19152;DHT22;9708;53.114;9.388;2023-08-07T10:56:55;23.20;99.90
19152;DHT22;9708;53.114;9.388;2023-08-07T10:59:22;22.70;99.90
19152;DHT22;9708;53.114;9.388;2023-08-07T11:01:54;23.20;99.90
19152;DHT22;9708;53.114;9.388;2023-08-07T11:04:22;22.30;99.90
19152;DHT22;9708;53.114;9.388;2023-08-07T11:06:50;21.70;99.90
19152;DHT22;9708;53.114;9.388;2023-08-07T11:09:17;20.90;99.90
19152;DHT22;9708;53.114;9.388;2023-08-07T11:11:46;20.60;99.90
19152;DHT22;9708;53.114;9.388;2023-08-07T11:14:14;19.90;99.90
19152;DHT22;9708;53.114;9.388;2023-08-07T11:16:42;19.50;99.90
19152;DHT22;9708;53.114;9.388;2023-08-07T11:19:12;19.40;99.90
19152;DHT22;9708;53.114;9.388;2023-08-07T11:21:40;19.50;99.90
19152;DHT22;9708;53.114;9.388;2023-08-07T11:24:08;19.80;99.90
19152;DHT22;9708;53.114;9.388;2023-08-07T11:26:35;19.70;99.90
19152;DHT22;9708;53.114;9.388;2023-08-07T11:29:02;19.60;99.90
19152;DHT22;9708;53.114;9.388;2023-08-07T11:31:29;19.40;99.90
19152;DHT22;9708;53.114;9.388;2023-08-07T11:33:57;19.70;99.90
19152;DHT22;9708;53.114;9.388;2023-08-07T11:36:26;19.90;99.90
19152;DHT22;9708;53.114;9.388;2023-08-07T11:38:53;20.10;99.90
19152;DHT22;9708;53.114;9.388;2023-08-07T11:41:19;19.90;99.90
19152;DHT22;9708;53.114;9.388;2023-08-07T11:43:47;19.90;99.90
19152;DHT22;9708;53.114;9.388;2023-08-07T11:46:15;20.10;99.90
19152;DHT22;9708;53.114;9.388;2023-08-07T11:48:43;19.90;99.90
19152;DHT22;9708;53.114;9.388;2023-08-07T11:51:11;19.90;99.90
19152;DHT22;9708;53.114;9.388;2023-08-07T11:53:40;19.90;99.90
19152;DHT22;9708;53.114;9.388;2023-08-07T11:56:08;20.00;99.90
19152;DHT22;9708;53.114;9.388;2023-08-07T11:58:37;19.50;99.90
19152;DHT22;9708;53.114;9.388;2023-08-07T12:01:05;19.70;99.90
19152;DHT22;9708;53.114;9.388;2023-08-07T12:03:32;20.10;99.90
19152;DHT22;9708;53.114;9.388;2023-08-07T12:06:04;20.00;99.90
19152;DHT22;9708;53.114;9.388;2023-08-07T12:08:32;20.70;99.90
19152;DHT22;9708;53.114;9.388;2023-08-07T12:11:03;21.00;99.90
19152;DHT22;9708;53.114;9.388;2023-08-07T12:13:31;20.70;99.90
19152;DHT22;9708;53.114;9.388;2023-08-07T12:16:01;20.10;99.90
19152;DHT22;9708;53.114;9.388;2023-08-07T12:18:29;20.60;99.90
19152;DHT22;9708;53.114;9.388;2023-08-07T12:21:00;20.50;99.90
19152;DHT22;9708;53.114;9.388;2023-08-07T12:23:27;19.80;99.90
19152;DHT22;9708;53.114;9.388;2023-08-07T12:25:55;19.60;99.90
19152;DHT22;9708;53.114;9.388;2023-08-07T12:28:23;19.30;99.90
19152;DHT22;9708;53.114;9.388;2023-08-07T12:30:51;19.80;99.90
19152;DHT22;9708;53.114;9.388;2023-08-07T12:33:18;20.50;99.90
19152;DHT22;9708;53.114;9.388;2023-08-07T12:35:45;20.70;99.90
19152;DHT22;9708;53.114;9.388;2023-08-07T12:38:12;20.50;99.90
19152;DHT22;9708;53.114;9.388;2023-08-07T12:40:40;20.20;99.90
19152;DHT22;9708;53.114;9.388;2023-08-07T12:43:07;20.20;99.90
19152;DHT22;9708;53.114;9.388;2023-08-07T12:45:35;19.90;99.90
19152;DHT22;9708;53.114;9.388;2023-08-07T12:48:02;19.80;99.90
19152;DHT22;9708;53.114;9.388;2023-08-07T12:50:29;19.80;99.90
19152;DHT22;9708;53.114;9.388;2023-08-07T12:52:56;19.80;99.90
19152;DHT22;9708;53.114;9.388;2023-08-07T12:55:24;19.40;99.90
19152;DHT22;9708;53.114;9.388;2023-08-07T12:57:52;19.50;99.90
19152;DHT22;9708;53.114;9.388;2023-08-07T13:00:19;19.60;99.90
19152;DHT22;9708;53.114;9.388;2023-08-07T13:02:49;20.00;99.90
19152;DHT22;9708;53.114;9.388;2023-08-07T13:05:17;19.80;99.90
19152;DHT22;9708;53.114;9.388;2023-08-07T13:07:44;19.50;99.90
19152;DHT22;9708;53.114;9.388;2023-08-07T13:10:13;19.30;99.90
19152;DHT22;9708;53.114;9.388;2023-08-07T13:12:41;18.80;99.90
19152;DHT22;9708;53.114;9.388;2023-08-07T13:15:10;18.30;99.90
19152;DHT22;9708;53.114;9.388;2023-08-07T13:17:38;18.60;99.90
19152;DHT22;9708;53.114;9.388;2023-08-07T13:20:08;18.80;99.90
19152;DHT22;9708;53.114;9.388;2023-08-07T13:22:36;19.30;99.90
19152;DHT22;9708;53.114;9.388;2023-08-07T13:25:03;19.40;99.90
19152;DHT22;9708;53.114;9.388;2023-08-07T13:27:30;19.30;99.90
19152;DHT22;9708;53.114;9.388;2023-08-07T13:29:57;18.20;99.90
19152;DHT22;9708;53.114;9.388;2023-08-07T13:32:25;17.70;99.90
19152;DHT22;9708;53.114;9.388;2023-08-07T13:34:51;17.90;99.90
19152;DHT22;9708;53.114;9.388;2023-08-07T13:37:20;18.20;99.90
19152;DHT22;9708;53.114;9.388;2023-08-07T13:39:47;18.20;99.90
19152;DHT22;9708;53.114;9.388;2023-08-07T13:42:16;17.80;99.90
19152;DHT22;9708;53.114;9.388;2023-08-07T13:44:43;17.80;99.90
19152;DHT22;9708;53.114;9.388;2023-08-07T13:47:10;17.70;99.90
19152;DHT22;9708;53.114;9.388;2023-08-07T13:49:38;18.00;99.90
19152;DHT22;9708;53.114;9.388;2023-08-07T13:52:06;18.30;99.90
19152;DHT22;9708;53.114;9.388;2023-08-07T13:54:34;18.80;99.90
19152;DHT22;9708;53.114;9.388;2023-08-07T13:57:01;19.40;99.90
19152;DHT22;9708;53.114;9.388;2023-08-07T13:59:28;19.70;99.90
19152;DHT22;9708;53.114;9.388;2023-08-07T14:01:55;19.90;99.90
19152;DHT22;9708;53.114;9.388;2023-08-07T14:04:22;19.40;99.90
19152;DHT22;9708;53.114;9.388;2023-08-07T14:06:49;18.90;99.90
19152;DHT22;9708;53.114;9.388;2023-08-07T14:09:15;18.60;99.90
19152;DHT22;9708;53.114;9.388;2023-08-07T14:11:45;18.50;99.90
19152;DHT22;9708;53.114;9.388;2023-08-07T14:14:12;18.60;99.90
19152;DHT22;9708;53.114;9.388;2023-08-07T14:16:39;18.50;99.90
19152;DHT22;9708;53.114;9.388;2023-08-07T14:19:05;18.50;99.90
19152;DHT22;9708;53.114;9.388;2023-08-07T14:21:32;18.30;99.90
19152;DHT22;9708;53.114;9.388;2023-08-07T14:23:59;18.20;99.90
19152;DHT22;9708;53.114;9.388;2023-08-07T14:26:26;18.20;99.90
19152;DHT22;9708;53.114;9.388;2023-08-07T14:28:54;18.30;99.90
19152;DHT22;9708;53.114;9.388;2023-08-07T14:31:21;18.10;99.90
19152;DHT22;9708;53.114;9.388;2023-08-07T14:33:48;18.20;99.90
19152;DHT22;9708;53.114;9.388;2023-08-07T14:36:15;18.20;99.90
19152;DHT22;9708;53.114;9.388;2023-08-07T14:38:42;18.10;99.90
19152;DHT22;9708;53.114;9.388;2023-08-07T14:41:08;18.10;99.90
19152;DHT22;9708;53.114;9.388;2023-08-07T14:43:35;18.10;99.90
19152;DHT22;9708;53.114;9.388;2023-08-07T14:46:03;18.10;99.90
19152;DHT22;9708;53.114;9.388;2023-08-07T14:48:30;17.90;99.90
19152;DHT22;9708;53.114;9.388;2023-08-07T14:50:57;17.90;99.90
19152;DHT22;9708;53.114;9.388;2023-08-07T14:53:24;17.90;99.90
19152;DHT22;9708;53.114;9.388;2023-08-07T14:55:52;17.70;99.90
19152;DHT22;9708;53.114;9.388;2023-08-07T14:58:19;17.60;99.90
19152;DHT22;9708;53.114;9.388;2023-08-07T15:00:46;17.70;99.90
19152;DHT22;9708;53.114;9.388;2023-08-07T15:03:16;18.00;99.90
19152;DHT22;9708;53.114;9.388;2023-08-07T15:05:43;18.00;99.90
19152;DHT22;9708;53.114;9.388;2023-08-07T15:08:09;18.00;99.90
19152;DHT22;9708;53.114;9.388;2023-08-07T15:10:36;18.00;99.90
19152;DHT22;9708;53.114;9.388;2023-08-07T15:13:05;17.90;99.90
19152;DHT22;9708;53.114;9.388;2023-08-07T15:15:32;17.90;99.90
19152;DHT22;9708;53.114;9.388;2023-08-07T15:17:59;17.80;99.90
19152;DHT22;9708;53.114;9.388;2023-08-07T15:20:29;17.90;99.90
19152;DHT22;9708;53.114;9.388;2023-08-07T15:22:56;17.90;99.90
19152;DHT22;9708;53.114;9.388;2023-08-07T15:25:23;17.90;99.90
19152;DHT22;9708;53.114;9.388;2023-08-07T15:27:50;18.00;99.90
19152;DHT22;9708;53.114;9.388;2023-08-07T15:30:17;18.20;99.90
19152;DHT22;9708;53.114;9.388;2023-08-07T15:32:44;18.00;99.90
19152;DHT22;9708;53.114;9.388;2023-08-07T15:35:11;17.90;99.90
19152;DHT22;9708;53.114;9.388;2023-08-07T15:37:39;17.90;99.90
19152;DHT22;9708;53.114;9.388;2023-08-07T15:40:07;18.10;99.90
19152;DHT22;9708;53.114;9.388;2023-08-07T15:42:35;17.90;99.90
19152;DHT22;9708;53.114;9.388;2023-08-07T15:45:02;17.70;99.90
19152;DHT22;9708;53.114;9.388;2023-08-07T15:47:30;17.70;99.90